createdAt,value
2023-04-12T00:02:24.780Z,97469.34
2023-04-12T00:04:55.807Z,97471.34
2023-04-12T00:07:24.204Z,97474.41
2023-04-12T00:09:51.803Z,97471.59
2023-04-12T00:12:19.593Z,97468.34
2023-04-12T00:14:47.430Z,97462.25
2023-04-12T00:17:14.998Z,97455.38
2023-04-12T00:19:42.465Z,97452.75
2023-04-12T00:22:10.278Z,97453.13
2023-04-12T00:24:41.613Z,97451.69
2023-04-12T00:27:09.203Z,97451.28
2023-04-12T00:29:36.855Z,97445.41
2023-04-12T00:32:05.792Z,97448.41
2023-04-12T00:34:33.298Z,97443.13
2023-04-12T00:37:02.277Z,97445.41
2023-04-12T00:39:29.666Z,97447.44
2023-04-12T00:41:58.168Z,97430.59
2023-04-12T00:44:25.577Z,97433.03
2023-04-12T00:46:55.033Z,97425.13
2023-04-12T00:49:22.699Z,97426.78
2023-04-12T00:51:50.261Z,97422.50
2023-04-12T00:54:18.405Z,97425.50
2023-04-12T00:56:47.366Z,97418.47
2023-04-12T00:59:15.489Z,97414.16
2023-04-12T01:01:43.061Z,97419.25
2023-04-12T01:04:14.115Z,97414.81
2023-04-12T01:06:50.857Z,97407.72
2023-04-12T01:09:18.602Z,97414.44
2023-04-12T01:11:56.953Z,97406.53
2023-04-12T01:14:27.930Z,97402.06
2023-04-12T01:17:00.469Z,97408.78
2023-04-12T01:19:36.045Z,97406.78
2023-04-12T01:22:41.665Z,97393.78
2023-04-12T01:25:29.288Z,97401.25
2023-04-12T01:28:21.124Z,97400.03
2023-04-12T01:30:51.990Z,97391.66
2023-04-12T01:33:22.485Z,97385.97
2023-04-12T01:35:52.525Z,97378.66
2023-04-12T01:38:21.586Z,97371.94
2023-04-12T01:40:49.231Z,97368.69
2023-04-12T01:43:19.231Z,97358.16
2023-04-12T01:45:46.907Z,97368.25
2023-04-12T01:48:14.565Z,97361.38
2023-04-12T01:50:57.663Z,97356.09
2023-04-12T01:53:48.261Z,97343.75
2023-04-12T01:56:18.574Z,97352.25
2023-04-12T01:58:48.798Z,97346.81
2023-04-12T02:01:19.378Z,97343.16
2023-04-12T02:03:51.785Z,97340.75
2023-04-12T02:06:23.165Z,97331.19
2023-04-12T02:09:02.284Z,97336.66
2023-04-12T02:11:30.293Z,97336.84
2023-04-12T02:13:58.294Z,97333.19
2023-04-12T02:16:29.481Z,97332.53
2023-04-12T02:18:57.599Z,97326.22
2023-04-12T02:21:26.507Z,97313.81
2023-04-12T02:23:55.030Z,97319.66
2023-04-12T02:26:23.639Z,97315.78
2023-04-12T02:28:52.735Z,97301.16
2023-04-12T02:31:20.948Z,97303.59
2023-04-12T02:33:49.948Z,97297.06
2023-04-12T02:36:18.786Z,97306.16
2023-04-12T02:38:46.425Z,97305.53
2023-04-12T02:41:18.920Z,97301.06
2023-04-12T02:43:47.035Z,97303.91
2023-04-12T02:46:23.604Z,97303.06
2023-04-12T02:48:56.554Z,97304.09
2023-04-12T02:51:32.528Z,97301.28
2023-04-12T02:54:01.448Z,97303.53
2023-04-12T02:56:38.408Z,97302.91
2023-04-12T02:59:21.217Z,97312.78
2023-04-12T03:02:07.219Z,97303.06
2023-04-12T03:04:37.551Z,97304.50
2023-04-12T03:07:05.611Z,97307.94
2023-04-12T03:10:07.401Z,97304.78
2023-04-12T03:12:40.114Z,97300.13
2023-04-12T03:15:16.015Z,97294.66
2023-04-12T03:17:47.258Z,97289.03
2023-04-12T03:20:20.576Z,97286.22
2023-04-12T03:23:01.989Z,97283.78
2023-04-12T03:25:31.503Z,97273.88
2023-04-12T03:28:09.028Z,97272.09
2023-04-12T03:30:48.493Z,97274.78
2023-04-12T03:33:19.061Z,97267.69
2023-04-12T03:35:48.472Z,97274.78
2023-04-12T03:38:16.469Z,97270.13
2023-04-12T03:40:44.390Z,97270.38
2023-04-12T03:43:12.200Z,97260.84
2023-04-12T03:45:39.815Z,97261.25
2023-04-12T03:48:08.410Z,97251.38
2023-04-12T03:50:44.603Z,97252.81
2023-04-12T03:53:19.364Z,97252.44
2023-04-12T03:55:47.981Z,97247.59
2023-04-12T03:58:16.620Z,97244.78
2023-04-12T04:00:46.940Z,97239.53
2023-04-12T04:03:15.700Z,97238.94
2023-04-12T04:05:55.366Z,97228.22
2023-04-12T04:08:23.111Z,97231.66
2023-04-12T04:10:52.236Z,97222.75
2023-04-12T04:13:22.586Z,97221.94
2023-04-12T04:16:04.934Z,97224.97
2023-04-12T04:18:33.193Z,97218.47
2023-04-12T04:21:01.932Z,97216.69
2023-04-12T04:23:45.200Z,97218.38
2023-04-12T04:26:14.004Z,97215.03
2023-04-12T04:28:56.546Z,97216.34
2023-04-12T04:31:36.638Z,97206.59
2023-04-12T04:34:06.951Z,97202.06
2023-04-12T04:36:41.797Z,97201.81
2023-04-12T04:39:10.050Z,97201.41
2023-04-12T04:41:42.300Z,97192.34
2023-04-12T04:44:20.505Z,97190.72
2023-04-12T04:46:56.671Z,97180.22
2023-04-12T04:49:24.317Z,97181.81
2023-04-12T04:51:51.795Z,97181.88
2023-04-12T04:54:20.902Z,97185.00
2023-04-12T04:56:48.386Z,97191.13
2023-04-12T04:59:18.238Z,97185.47
2023-04-12T05:01:46.685Z,97184.19
2023-04-12T05:04:16.762Z,97187.84
2023-04-12T05:06:44.552Z,97185.31
2023-04-12T05:09:14.224Z,97186.03
2023-04-12T05:11:48.385Z,97182.53
2023-04-12T05:14:15.928Z,97176.97
2023-04-12T05:16:43.400Z,97175.03
2023-04-12T05:19:11.279Z,97176.19
2023-04-12T05:21:38.738Z,97182.03
2023-04-12T05:24:06.592Z,97170.34
2023-04-12T05:26:36.782Z,97176.63
2023-04-12T05:29:09.893Z,97169.69
2023-04-12T05:31:37.558Z,97163.13
2023-04-12T05:34:08.683Z,97155.75
2023-04-12T05:36:42.521Z,97160.44
2023-04-12T05:39:09.942Z,97158.84
2023-04-12T05:41:37.445Z,97157.19
2023-04-12T05:44:04.964Z,97148.47
2023-04-12T05:46:33.360Z,97149.06
2023-04-12T05:49:01.471Z,97137.31
2023-04-12T05:51:40.470Z,97137.91
2023-04-12T05:54:13.822Z,97138.53
2023-04-12T05:56:41.497Z,97130.06
2023-04-12T05:59:11.094Z,97124.06
2023-04-12T06:01:42.837Z,97122.97
2023-04-12T06:04:10.701Z,97116.50
2023-04-12T06:06:39.426Z,97111.41
2023-04-12T06:09:07.074Z,97109.19
2023-04-12T06:11:34.544Z,97111.72
2023-04-12T06:14:03.053Z,97105.78
2023-04-12T06:16:30.871Z,97104.63
2023-04-12T06:18:58.998Z,97096.09
2023-04-12T06:21:27.680Z,97084.25
2023-04-12T06:23:55.610Z,97081.03
2023-04-12T06:26:23.311Z,97076.91
2023-04-12T06:28:50.933Z,97074.66
2023-04-12T06:31:18.625Z,97067.75
2023-04-12T06:33:47.460Z,97064.38
2023-04-12T06:36:16.359Z,97055.59
2023-04-12T06:38:44.103Z,97056.34
2023-04-12T06:41:11.829Z,97048.38
2023-04-12T06:43:39.456Z,97041.25
2023-04-12T06:46:09.092Z,97034.50
2023-04-12T06:48:36.600Z,97038.53
2023-04-12T06:51:04.172Z,97028.78
2023-04-12T06:53:31.690Z,97028.75
2023-04-12T06:56:03.624Z,97029.28
2023-04-12T06:58:31.946Z,97014.28
2023-04-12T07:01:10.364Z,97018.81
2023-04-12T07:03:39.080Z,97020.59
2023-04-12T07:06:17.646Z,97017.94
2023-04-12T07:08:49.837Z,97025.44
2023-04-12T07:11:21.279Z,97014.25
2023-04-12T07:13:50.046Z,97015.88
2023-04-12T07:16:18.426Z,97015.03
2023-04-12T07:18:46.223Z,97004.06
2023-04-12T07:21:14.671Z,97015.31
2023-04-12T07:23:42.203Z,97019.59
2023-04-12T07:26:09.788Z,97012.63
2023-04-12T07:28:38.222Z,97010.00
2023-04-12T07:31:07.125Z,97009.22
2023-04-12T07:33:36.216Z,97012.19
2023-04-12T07:36:04.876Z,97008.91
2023-04-12T07:38:32.463Z,96999.81
2023-04-12T07:40:59.901Z,97001.97
2023-04-12T07:43:27.482Z,96991.75
2023-04-12T07:45:56.459Z,96992.59
2023-04-12T07:48:24.152Z,96990.50
2023-04-12T07:50:51.707Z,96987.25
2023-04-12T07:53:26.803Z,96977.66
2023-04-12T07:55:55.990Z,96978.44
2023-04-12T07:58:25.043Z,96967.72
2023-04-12T08:00:53.914Z,96969.31
2023-04-12T08:03:21.497Z,96967.19
2023-04-12T08:05:53.654Z,96961.56
2023-04-12T08:08:22.439Z,96949.25
2023-04-12T08:10:50.723Z,96945.50
2023-04-12T08:13:18.988Z,96940.91
2023-04-12T08:15:49.489Z,96940.28
2023-04-12T08:18:17.053Z,96939.31
2023-04-12T08:20:44.701Z,96929.13
2023-04-12T08:23:12.191Z,96933.72
2023-04-12T08:25:39.819Z,96932.38
2023-04-12T08:28:08.393Z,96922.22
2023-04-12T08:30:36.977Z,96914.19
2023-04-12T08:33:04.700Z,96932.63
2023-04-12T08:35:32.859Z,96933.72
2023-04-12T08:38:06.958Z,96931.84
2023-04-12T08:40:34.503Z,96928.09
2023-04-12T08:43:05.737Z,96921.69
2023-04-12T08:45:35.673Z,96919.25
2023-04-12T08:48:06.202Z,96903.72
2023-04-12T08:50:34.168Z,96899.16
2023-04-12T08:53:01.815Z,96896.38
2023-04-12T08:55:29.418Z,96904.00
2023-04-12T08:57:57.194Z,96898.88
2023-04-12T09:00:25.992Z,96897.59
2023-04-12T09:02:53.943Z,96890.59
2023-04-12T09:05:33.653Z,96881.72
2023-04-12T09:08:04.872Z,96877.63
2023-04-12T09:10:37.919Z,96875.06
2023-04-12T09:13:06.337Z,96879.84
2023-04-12T09:15:34.499Z,96882.22
2023-04-12T09:18:09.620Z,96872.41
2023-04-12T09:20:38.315Z,96881.22
2023-04-12T09:23:24.230Z,96865.47
2023-04-12T09:25:53.480Z,96860.09
2023-04-12T09:28:30.014Z,96877.44
2023-04-12T09:31:00.026Z,96852.63
2023-04-12T09:33:36.491Z,96862.78
2023-04-12T09:36:05.818Z,96863.06
2023-04-12T09:38:34.625Z,96857.16
2023-04-12T09:41:20.909Z,96856.06
2023-04-12T09:43:49.916Z,96853.06
2023-04-12T09:46:17.449Z,96838.44
2023-04-12T09:48:52.818Z,96832.59
2023-04-12T09:51:34.490Z,96832.59
2023-04-12T09:54:07.049Z,96823.19
2023-04-12T09:56:36.752Z,96824.50
2023-04-12T09:59:06.242Z,96822.06
2023-04-12T10:01:40.125Z,96817.59
2023-04-12T10:04:09.442Z,96818.91
2023-04-12T10:06:37.567Z,96798.34
2023-04-12T10:09:06.808Z,96801.47
2023-04-12T10:11:34.764Z,96795.28
2023-04-12T10:14:03.580Z,96786.63
2023-04-12T10:16:33.695Z,96778.00
2023-04-12T10:19:04.325Z,96766.31
2023-04-12T10:21:32.124Z,96771.25
2023-04-12T10:24:00.833Z,96761.81
2023-04-12T10:26:28.453Z,96757.47
2023-04-12T10:29:25.989Z,96743.06
2023-04-12T10:31:58.134Z,96740.22
2023-04-12T10:34:30.288Z,96748.59
2023-04-12T10:37:00.639Z,96751.41
2023-04-12T10:39:37.118Z,96744.72
2023-04-12T10:42:19.881Z,96745.94
2023-04-12T10:44:47.907Z,96734.59
2023-04-12T10:47:15.918Z,96743.78
2023-04-12T10:50:22.180Z,96746.34
2023-04-12T10:53:17.275Z,96748.94
2023-04-12T10:55:45.989Z,96734.53
2023-04-12T10:58:48.248Z,96729.81
2023-04-12T11:01:18.774Z,96726.38
2023-04-12T11:04:09.936Z,96716.91
2023-04-12T11:06:53.396Z,96705.88
2023-04-12T11:10:01.755Z,96705.22
2023-04-12T11:12:39.494Z,96702.25
2023-04-12T11:15:08.094Z,96706.84
2023-04-12T11:17:55.575Z,96690.38
2023-04-12T11:20:26.371Z,96673.94
2023-04-12T11:22:55.069Z,96679.56
2023-04-12T11:25:26.182Z,96685.50
2023-04-12T11:27:55.081Z,96676.34
2023-04-12T11:30:25.929Z,96676.50
2023-04-12T11:32:53.465Z,96668.66
2023-04-12T11:35:27.339Z,96649.06
2023-04-12T11:37:57.619Z,96655.22
2023-04-12T11:40:26.579Z,96660.59
2023-04-12T11:42:54.152Z,96658.94
2023-04-12T11:45:22.355Z,96640.34
2023-04-12T11:47:52.040Z,96631.94
2023-04-12T11:50:30.907Z,96625.19
2023-04-12T11:53:11.097Z,96630.53
2023-04-12T11:55:38.662Z,96614.66
2023-04-12T11:58:07.222Z,96614.78
2023-04-12T12:00:35.092Z,96611.66
2023-04-12T12:05:37.593Z,96594.59
2023-04-12T12:08:07.959Z,96604.78
2023-04-12T12:10:52.406Z,96594.13
2023-04-12T12:13:28.080Z,96599.63
2023-04-12T12:15:57.273Z,96582.25
2023-04-12T12:18:29.029Z,96582.41
2023-04-12T12:20:56.617Z,96565.56
2023-04-12T12:23:31.220Z,96573.25
2023-04-12T12:26:14.404Z,96557.06
2023-04-12T12:28:52.718Z,96551.06
2023-04-12T12:31:22.754Z,96551.81
2023-04-12T12:33:55.204Z,96542.19
2023-04-12T12:36:31.499Z,96535.34
2023-04-12T12:39:07.560Z,96533.13
2023-04-12T12:41:35.672Z,96532.03
2023-04-12T12:44:03.345Z,96525.19
2023-04-12T12:46:44.567Z,96506.22
2023-04-12T12:49:18.938Z,96514.13
2023-04-12T12:51:47.101Z,96513.06
2023-04-12T12:54:31.706Z,96516.00
2023-04-12T12:57:04.621Z,96514.34
2023-04-12T12:59:32.171Z,96494.31
2023-04-12T13:01:59.880Z,96516.38
2023-04-12T13:04:28.813Z,96507.16
2023-04-12T13:06:56.342Z,96508.38
2023-04-12T13:09:23.942Z,96487.38
2023-04-12T13:11:51.486Z,96492.41
2023-04-12T13:14:19.014Z,96484.53
2023-04-12T13:16:48.674Z,96482.38
2023-04-12T13:19:16.538Z,96478.00
2023-04-12T13:21:44.016Z,96476.44
2023-04-12T13:24:11.648Z,96469.03
2023-04-12T13:26:39.175Z,96467.09
2023-04-12T13:29:06.826Z,96463.97
2023-04-12T13:31:34.554Z,96469.38
2023-04-12T13:34:02.290Z,96456.31
2023-04-12T13:36:29.807Z,96461.84
2023-04-12T13:38:57.604Z,96462.56
2023-04-12T13:41:26.380Z,96462.03
2023-04-12T13:43:53.842Z,96445.78
2023-04-12T13:46:21.431Z,96455.56
2023-04-12T13:48:49.051Z,96453.47
2023-04-12T13:51:16.577Z,96450.06
2023-04-12T13:53:45.082Z,96453.47
2023-04-12T13:56:12.544Z,96464.84
2023-04-12T13:58:40.269Z,96454.38
2023-04-12T14:01:09.240Z,96444.91
2023-04-12T14:03:37.004Z,96435.28
2023-04-12T14:06:04.575Z,96441.25
2023-04-12T14:08:32.105Z,96441.59
2023-04-12T14:11:00.003Z,96438.34
2023-04-12T14:13:27.710Z,96441.25
2023-04-12T14:15:56.154Z,96440.47
2023-04-12T14:18:23.822Z,96430.09
2023-04-12T14:20:54.995Z,96440.34
2023-04-12T14:23:26.068Z,96448.78
2023-04-12T14:25:53.700Z,96446.94
2023-04-12T14:28:28.999Z,96442.59
2023-04-12T14:30:57.707Z,96437.03
2023-04-12T14:33:25.434Z,96452.31
2023-04-12T14:35:53.945Z,96446.81
2023-04-12T14:38:22.851Z,96443.66
2023-04-12T14:40:50.485Z,96449.59
2023-04-12T14:43:17.965Z,96451.72
2023-04-12T14:45:45.632Z,96445.31
2023-04-12T14:48:13.156Z,96444.59
2023-04-12T14:50:40.760Z,96444.31
2023-04-12T14:53:09.907Z,96456.03
2023-04-12T14:55:37.361Z,96447.28
2023-04-12T14:58:04.940Z,96458.44
2023-04-12T15:00:34.095Z,96474.47
2023-04-12T15:03:02.728Z,96456.06
2023-04-12T15:05:30.737Z,96457.13
2023-04-12T15:07:58.233Z,96455.00
2023-04-12T15:10:26.312Z,96463.00
2023-04-12T15:12:54.264Z,96452.88
2023-04-12T15:15:22.689Z,96449.13
2023-04-12T15:17:50.346Z,96450.72
2023-04-12T15:20:17.940Z,96468.06
2023-04-12T15:22:45.457Z,96452.34
2023-04-12T15:25:12.908Z,96457.94
2023-04-12T15:27:40.900Z,96454.19
2023-04-12T15:30:10.897Z,96461.09
2023-04-12T15:32:41.355Z,96460.31
2023-04-12T15:35:25.297Z,96451.72
2023-04-12T15:37:55.334Z,96452.28
2023-04-12T15:40:23.208Z,96452.25
2023-04-12T15:42:51.926Z,96447.69
2023-04-12T15:45:19.442Z,96452.78
2023-04-12T15:47:47.092Z,96449.56
2023-04-12T15:50:14.674Z,96446.41
2023-04-12T15:52:44.318Z,96427.41
2023-04-12T15:55:12.194Z,96434.63
2023-04-12T15:57:39.688Z,96426.63
2023-04-12T16:00:28.080Z,96426.09
2023-04-12T16:02:57.324Z,96417.03
2023-04-12T16:05:25.135Z,96423.44
2023-04-12T16:07:54.185Z,96421.03
2023-04-12T16:10:22.482Z,96417.31
2023-04-12T16:12:51.967Z,96413.06
2023-04-12T16:15:20.924Z,96403.13
2023-04-12T16:17:49.583Z,96407.44
2023-04-12T16:20:18.575Z,96402.59
2023-04-12T16:22:48.113Z,96402.06
2023-04-12T16:25:19.965Z,96398.38
2023-04-12T16:27:47.566Z,96389.31
2023-04-12T16:30:15.923Z,96385.00
2023-04-12T16:32:46.902Z,96378.84
2023-04-12T16:35:16.156Z,96366.63
2023-04-12T16:37:44.634Z,96359.13
2023-04-12T16:40:13.181Z,96358.84
2023-04-12T16:42:44.732Z,96351.41
2023-04-12T16:45:14.653Z,96350.88
2023-04-12T16:47:42.329Z,96348.19
2023-04-12T16:50:10.428Z,96338.59
2023-04-12T16:52:38.285Z,96335.41
2023-04-12T16:55:06.638Z,96328.75
2023-04-12T16:57:34.037Z,96323.66
2023-04-12T17:00:01.643Z,96328.22
2023-04-12T17:02:29.235Z,96315.41
2023-04-12T17:04:56.770Z,96309.78
2023-04-12T17:07:24.317Z,96307.13
2023-04-12T17:09:51.740Z,96303.91
2023-04-12T17:12:19.236Z,96310.84
2023-04-12T17:14:46.663Z,96321.47
2023-04-12T17:17:15.042Z,96326.00
2023-04-12T17:19:44.315Z,96318.78
2023-04-12T17:22:11.862Z,96320.41
2023-04-12T17:24:39.814Z,96303.59
2023-04-12T17:27:07.304Z,96312.41
2023-04-12T17:29:34.810Z,96309.44
2023-04-12T17:32:04.401Z,96311.59
2023-04-12T17:34:32.244Z,96313.97
2023-04-12T17:36:59.651Z,96309.69
2023-04-12T17:39:27.117Z,96312.63
2023-04-12T17:41:54.635Z,96319.25
2023-04-12T17:44:22.111Z,96311.78
2023-04-12T17:46:49.554Z,96308.34
2023-04-12T17:49:16.976Z,96313.41
2023-04-12T17:51:44.436Z,96320.03
2023-04-12T17:54:12.628Z,96324.03
2023-04-12T17:56:40.058Z,96305.41
2023-04-12T17:59:07.540Z,96307.84
2023-04-12T18:01:36.988Z,96310.78
2023-04-12T18:04:05.681Z,96316.34
2023-04-12T18:06:33.357Z,96307.03
2023-04-12T18:09:06.324Z,96311.84
2023-04-12T18:11:36.233Z,96312.94
2023-04-12T18:14:03.766Z,96315.59
2023-04-12T18:16:32.095Z,96307.88
2023-04-12T18:19:03.322Z,96312.94
2023-04-12T18:21:32.164Z,96311.88
2023-04-12T18:24:01.286Z,96305.47
2023-04-12T18:26:30.800Z,96311.31
2023-04-12T18:28:59.474Z,96308.69
2023-04-12T18:31:27.492Z,96312.13
2023-04-12T18:33:55.219Z,96309.44
2023-04-12T18:36:23.160Z,96311.53
2023-04-12T18:38:50.537Z,96313.63
2023-04-12T18:41:18.010Z,96309.63
2023-04-12T18:43:45.577Z,96313.09
2023-04-12T18:46:17.456Z,96318.38
2023-04-12T18:48:46.004Z,96315.72
2023-04-12T18:51:14.859Z,96302.94
2023-04-12T18:53:42.420Z,96301.06
2023-04-12T18:56:18.285Z,96309.56
2023-04-12T18:58:55.213Z,96304.25
2023-04-12T19:01:24.879Z,96312.75
2023-04-12T19:03:52.847Z,96319.13
2023-04-12T19:06:20.395Z,96319.19
2023-04-12T19:08:49.770Z,96319.19
2023-04-12T19:11:17.278Z,96309.56
2023-04-12T19:13:44.666Z,96325.00
2023-04-12T19:16:12.716Z,96316.47
2023-04-12T19:18:40.171Z,96318.56
2023-04-12T19:21:07.865Z,96320.72
2023-04-12T19:23:35.327Z,96310.09
2023-04-12T19:26:03.234Z,96316.75
2023-04-12T19:28:30.711Z,96315.47
2023-04-12T19:30:58.759Z,96301.63
2023-04-12T19:33:26.476Z,96290.97
2023-04-12T19:35:56.417Z,96283.53
2023-04-12T19:38:24.039Z,96279.53
2023-04-12T19:40:51.835Z,96281.94
2023-04-12T19:43:19.355Z,96284.28
2023-04-12T19:45:47.433Z,96277.66
2023-04-12T19:48:14.933Z,96282.97
2023-04-12T19:50:42.923Z,96275.53
2023-04-12T19:53:12.238Z,96264.63
2023-04-12T19:55:39.963Z,96256.13
2023-04-12T19:58:08.179Z,96261.72
2023-04-12T20:00:36.033Z,96260.88
2023-04-12T20:03:03.552Z,96250.25
2023-04-12T20:05:31.148Z,96242.22
2023-04-12T20:07:59.237Z,96238.50
2023-04-12T20:10:26.773Z,96244.06
2023-04-12T20:12:54.372Z,96262.97
2023-04-12T20:15:22.449Z,96266.97
2023-04-12T20:17:50.092Z,96278.13
2023-04-12T20:20:17.684Z,96272.25
2023-04-12T20:22:52.217Z,96278.66
2023-04-12T20:25:22.694Z,96274.66
2023-04-12T20:27:52.508Z,96277.84
2023-04-12T20:30:21.245Z,96286.16
2023-04-12T20:32:54.736Z,96298.09
2023-04-12T20:35:22.406Z,96302.63
2023-04-12T20:37:51.275Z,96304.75
2023-04-12T20:40:20.572Z,96308.22
2023-04-12T20:42:48.076Z,96301.63
2023-04-12T20:45:17.143Z,96301.34
2023-04-12T20:47:44.878Z,96308.00
2023-04-12T20:50:12.587Z,96303.28
2023-04-12T20:52:40.099Z,96302.75
2023-04-12T20:55:07.950Z,96301.13
2023-04-12T20:57:35.419Z,96312.56
2023-04-12T21:00:12.591Z,96308.63
2023-04-12T21:02:40.785Z,96301.41
2023-04-12T21:05:08.376Z,96302.78
2023-04-12T21:07:36.559Z,96298.78
2023-04-12T21:10:04.307Z,96294.00
2023-04-12T21:12:32.254Z,96302.56
2023-04-12T21:15:00.901Z,96299.31
2023-04-12T21:17:29.945Z,96304.44
2023-04-12T21:19:58.392Z,96307.09
2023-04-12T21:22:26.252Z,96288.69
2023-04-12T21:24:53.767Z,96296.16
2023-04-12T21:27:21.181Z,96285.78
2023-04-12T21:29:48.738Z,96295.34
2023-04-12T21:32:16.193Z,96294.53
2023-04-12T21:34:43.760Z,96298.00
2023-04-12T21:37:11.253Z,96309.44
2023-04-12T21:39:39.360Z,96308.66
2023-04-12T21:42:07.392Z,96307.84
2023-04-12T21:44:34.810Z,96305.47
2023-04-12T21:47:02.344Z,96308.13
2023-04-12T21:49:30.850Z,96316.63
2023-04-12T21:51:59.316Z,96305.19
2023-04-12T21:54:31.456Z,96307.06
2023-04-12T21:56:58.895Z,96303.31
2023-04-12T21:59:26.761Z,96312.13
2023-04-12T22:01:54.465Z,96316.13
2023-04-12T22:04:22.232Z,96314.25
2023-04-12T22:06:50.968Z,96306.81
2023-04-12T22:09:18.839Z,96312.97
2023-04-12T22:11:46.715Z,96306.31
2023-04-12T22:14:15.507Z,96314.56
2023-04-12T22:16:43.181Z,96310.28
2023-04-12T22:19:10.701Z,96311.88
2023-04-12T22:21:40.232Z,96315.63
2023-04-12T22:24:08.398Z,96322.25
2023-04-12T22:26:35.938Z,96326.25
2023-04-12T22:29:04.558Z,96317.44
2023-04-12T22:31:32.511Z,96324.06
2023-04-12T22:34:01.744Z,96324.63
2023-04-12T22:36:29.740Z,96328.59
2023-04-12T22:38:58.659Z,96323.56
2023-04-12T22:41:28.684Z,96328.59
2023-04-12T22:44:01.604Z,96344.34
2023-04-12T22:46:32.773Z,96345.88
2023-04-12T22:49:03.689Z,96347.22
2023-04-12T22:51:31.769Z,96350.13
2023-04-12T22:53:59.873Z,96348.28
2023-04-12T22:56:34.660Z,96339.22
2023-04-12T22:59:02.091Z,96332.59
2023-04-12T23:01:29.639Z,96345.59
2023-04-12T23:03:57.452Z,96353.53
2023-04-12T23:06:26.730Z,96357.78
2023-04-12T23:08:54.215Z,96356.69
2023-04-12T23:11:21.880Z,96363.38
2023-04-12T23:13:49.431Z,96363.63
2023-04-12T23:16:16.854Z,96364.41
2023-04-12T23:18:45.177Z,96371.03
2023-04-12T23:21:12.559Z,96371.31
2023-04-12T23:23:40.720Z,96370.75
2023-04-12T23:26:08.182Z,96372.84
2023-04-12T23:28:35.699Z,96379.75
2023-04-12T23:31:03.298Z,96376.03
2023-04-12T23:33:30.786Z,96385.06
2023-04-12T23:39:46.458Z,96386.63
2023-04-12T23:42:13.923Z,96383.41
2023-04-12T23:44:41.382Z,96375.19
2023-04-12T23:47:08.930Z,96374.44
2023-04-12T23:49:36.570Z,96376.03
2023-04-12T23:52:04.045Z,96384.06
2023-04-12T23:54:31.827Z,96384.56
2023-04-12T23:56:59.257Z,96381.66
2023-04-12T23:59:27.828Z,96384.56
